createdAt,value
2022-12-24T00:00:34.668Z,3.54
2022-12-24T00:02:36.157Z,3.54
2022-12-24T00:04:37.270Z,3.54
2022-12-24T00:06:38.394Z,3.54
2022-12-24T00:08:39.524Z,3.54
2022-12-24T00:10:40.561Z,3.54
2022-12-24T00:12:41.501Z,3.54
2022-12-24T00:16:44.896Z,3.53
2022-12-24T00:18:47.028Z,3.54
2022-12-24T00:20:47.263Z,3.54
2022-12-24T00:22:49.166Z,3.54
2022-12-24T00:24:51.067Z,3.54
2022-12-24T00:26:51.916Z,3.53
2022-12-24T00:28:53.246Z,3.54
2022-12-24T00:32:55.462Z,3.54
2022-12-24T00:34:56.751Z,3.53
2022-12-24T00:36:58.313Z,3.54
2022-12-24T00:39:00.175Z,3.54
2022-12-24T00:43:03.496Z,3.53
2022-12-24T00:45:04.385Z,3.53
2022-12-24T00:49:07.126Z,3.53
2022-12-24T00:51:08.414Z,3.53
2022-12-24T00:53:09.279Z,3.53
2022-12-24T00:55:10.982Z,3.53
2022-12-24T00:59:14.341Z,3.53
2022-12-24T01:01:16.241Z,3.53
2022-12-24T01:03:17.257Z,3.53
2022-12-24T01:05:18.528Z,3.53
2022-12-24T01:07:19.880Z,3.53
2022-12-24T01:09:21.738Z,3.53
2022-12-24T01:11:23.111Z,3.53
2022-12-24T01:15:25.090Z,3.53
2022-12-24T01:17:26.292Z,3.53
2022-12-24T01:19:27.641Z,3.53
2022-12-24T01:21:28.817Z,3.53
2022-12-24T01:25:31.335Z,3.53
2022-12-24T01:27:32.677Z,3.53
2022-12-24T01:29:34.137Z,3.53
2022-12-24T01:31:36.094Z,3.53
2022-12-24T01:33:37.889Z,3.53
2022-12-24T01:35:39.138Z,3.53
2022-12-24T01:37:40.456Z,3.53
2022-12-24T01:41:43.783Z,3.53
2022-12-24T01:43:45.289Z,3.53
2022-12-24T01:47:48.177Z,3.53
2022-12-24T01:49:49.401Z,3.53
2022-12-24T01:51:50.647Z,3.53
2022-12-24T01:53:51.975Z,3.53
2022-12-24T01:57:55.188Z,3.53
2022-12-24T01:59:56.209Z,3.53
2022-12-24T02:01:57.574Z,3.53
2022-12-24T02:03:58.583Z,3.53
2022-12-24T02:05:59.655Z,3.53
2022-12-24T02:08:01.522Z,3.53
2022-12-24T02:10:03.075Z,3.52
2022-12-24T02:14:05.739Z,3.53
2022-12-24T02:16:07.519Z,3.53
2022-12-24T02:18:09.222Z,3.52
2022-12-24T02:20:10.920Z,3.53
2022-12-24T02:24:13.595Z,3.53
2022-12-24T02:26:14.747Z,3.53
2022-12-24T02:28:16.514Z,3.52
2022-12-24T02:30:17.474Z,3.52
2022-12-24T02:32:18.703Z,3.52
2022-12-24T02:34:19.724Z,3.52
2022-12-24T02:36:21.041Z,3.52
2022-12-24T02:40:23.780Z,3.52
2022-12-24T02:42:25.619Z,3.52
2022-12-24T02:44:26.636Z,3.52
2022-12-24T02:46:28.048Z,3.53
2022-12-24T02:48:29.589Z,3.52
2022-12-24T02:50:31.272Z,3.52
2022-12-24T02:52:32.234Z,3.52
2022-12-24T02:56:35.195Z,3.52
2022-12-24T02:58:36.825Z,3.52
2022-12-24T03:00:37.870Z,3.52
2022-12-24T03:02:39.594Z,3.52
2022-12-24T03:06:42.682Z,3.52
2022-12-24T03:08:43.988Z,3.52
2022-12-24T03:12:46.394Z,3.52
2022-12-24T03:14:47.514Z,3.52
2022-12-24T03:16:48.889Z,3.52
2022-12-24T03:18:50.564Z,3.52
2022-12-24T03:22:53.431Z,3.52
2022-12-24T03:24:55.074Z,3.52
2022-12-24T03:26:56.451Z,3.52
2022-12-24T03:28:58.076Z,3.52
2022-12-24T03:30:59.290Z,3.52
2022-12-24T03:33:00.225Z,3.52
2022-12-24T03:35:01.175Z,3.52
2022-12-24T03:39:03.699Z,3.52
2022-12-24T03:41:05.532Z,3.52
2022-12-24T03:43:06.788Z,3.52
2022-12-24T03:45:07.948Z,3.52
2022-12-24T03:49:11.434Z,3.52
2022-12-24T03:51:13.349Z,3.52
2022-12-24T03:53:14.690Z,3.52
2022-12-24T03:55:15.651Z,3.52
2022-12-24T03:57:17.011Z,3.52
2022-12-24T03:59:18.540Z,3.52
2022-12-24T04:01:19.733Z,3.52
2022-12-24T04:05:22.857Z,3.52
2022-12-24T04:07:24.574Z,3.52
2022-12-24T04:10:10.073Z,3.52
2022-12-24T04:12:11.081Z,3.52
2022-12-24T04:16:14.407Z,3.52
2022-12-24T04:18:16.077Z,3.52
2022-12-24T04:20:17.079Z,3.52
2022-12-24T04:22:18.552Z,3.52
2022-12-24T04:24:20.224Z,3.52
2022-12-24T04:26:22.079Z,3.52
2022-12-24T04:28:23.200Z,3.52
2022-12-24T04:32:25.979Z,3.52
2022-12-24T04:34:27.312Z,3.52
2022-12-24T04:38:30.456Z,3.52
2022-12-24T04:40:32.364Z,3.52
2022-12-24T04:42:34.143Z,3.52
2022-12-24T04:44:35.989Z,3.52
2022-12-24T04:48:38.328Z,3.52
2022-12-24T04:50:39.623Z,3.52
2022-12-24T04:52:41.112Z,3.52
2022-12-24T04:54:42.390Z,3.52
2022-12-24T04:58:45.396Z,3.51
2022-12-24T05:00:46.772Z,3.52
2022-12-24T05:02:48.487Z,3.52
2022-12-24T05:04:49.278Z,3.51
2022-12-24T05:06:50.206Z,3.52
2022-12-24T05:08:51.257Z,3.52
2022-12-24T05:10:53.211Z,3.52
2022-12-24T05:14:56.464Z,3.52
2022-12-24T05:16:57.813Z,3.52
2022-12-24T05:18:58.745Z,3.52
2022-12-24T05:20:59.827Z,3.52
2022-12-24T05:23:00.786Z,3.52
2022-12-24T05:25:02.589Z,3.51
2022-12-24T05:27:03.575Z,3.52
2022-12-24T05:31:06.934Z,3.52
2022-12-24T05:33:08.488Z,3.51
2022-12-24T05:35:10.275Z,3.51
2022-12-24T05:37:11.539Z,3.51
2022-12-24T05:39:15.557Z,3.51
2022-12-24T05:41:14.750Z,3.51
2022-12-24T05:43:16.242Z,3.51
2022-12-24T05:47:18.559Z,3.51
2022-12-24T05:49:19.521Z,3.51
2022-12-24T05:51:21.166Z,3.51
2022-12-24T05:53:22.493Z,3.51
2022-12-24T05:57:25.428Z,3.51
2022-12-24T05:59:26.948Z,3.51
2022-12-24T06:03:30.203Z,3.51
2022-12-24T06:05:31.435Z,3.51
2022-12-24T06:07:33.144Z,3.51
2022-12-24T06:09:34.555Z,3.51
2022-12-24T06:13:37.376Z,3.51
2022-12-24T06:15:38.422Z,3.51
2022-12-24T06:17:39.970Z,3.51
2022-12-24T06:19:40.960Z,3.51
2022-12-24T06:21:42.441Z,3.51
2022-12-24T06:23:43.568Z,3.51
2022-12-24T06:25:44.707Z,3.51
2022-12-24T06:29:47.857Z,3.51
2022-12-24T06:31:49.264Z,3.51
2022-12-24T06:33:50.890Z,3.51
2022-12-24T06:35:52.495Z,3.51
2022-12-24T06:39:55.093Z,3.51
2022-12-24T06:41:56.347Z,3.5
2022-12-24T06:43:57.856Z,3.51
2022-12-24T06:45:59.386Z,3.51
2022-12-24T06:48:00.740Z,3.51
2022-12-24T06:50:01.920Z,3.51
2022-12-24T06:52:03.249Z,3.5
2022-12-24T06:56:06.416Z,3.51
2022-12-24T06:58:07.809Z,3.51
2022-12-24T07:02:11.000Z,3.51
2022-12-24T07:04:18.076Z,3.5
2022-12-24T07:06:14.134Z,3.51
2022-12-24T07:08:15.335Z,3.5
2022-12-24T07:12:18.297Z,3.51
2022-12-24T07:14:19.850Z,3.51
2022-12-24T07:16:21.775Z,3.5
2022-12-24T07:18:22.749Z,3.5
2022-12-24T07:22:26.285Z,3.5
2022-12-24T07:24:28.147Z,3.5
2022-12-24T07:26:29.415Z,3.5
2022-12-24T07:28:31.011Z,3.5
2022-12-24T07:30:32.862Z,3.5
2022-12-24T07:32:34.375Z,3.5
2022-12-24T07:34:36.317Z,3.5
2022-12-24T07:38:38.815Z,3.5
2022-12-24T07:40:39.895Z,3.5
2022-12-24T07:44:42.908Z,3.5
2022-12-24T07:46:44.060Z,3.5
2022-12-24T07:48:45.776Z,3.5
2022-12-24T07:50:46.911Z,3.5
2022-12-24T07:54:49.384Z,3.5
2022-12-24T07:56:50.958Z,3.5
2022-12-24T07:58:52.540Z,3.5
2022-12-24T08:00:53.648Z,3.5
2022-12-24T08:02:55.391Z,3.5
2022-12-24T08:04:56.834Z,3.5
2022-12-24T08:06:58.425Z,3.5
2022-12-24T08:11:00.735Z,3.5
2022-12-24T08:13:01.709Z,3.5
2022-12-24T08:15:03.103Z,3.5
2022-12-24T08:17:04.780Z,3.5
2022-12-24T08:21:08.401Z,3.5
2022-12-24T08:23:09.485Z,3.5
2022-12-24T08:25:10.996Z,3.5
2022-12-24T08:27:12.346Z,3.5
2022-12-24T08:29:13.405Z,3.5
2022-12-24T08:31:14.538Z,3.5
2022-12-24T08:33:16.059Z,3.5
2022-12-24T08:37:18.198Z,3.5
2022-12-24T08:39:20.009Z,3.5
2022-12-24T08:41:21.291Z,3.5
2022-12-24T08:43:22.497Z,3.5
2022-12-24T08:45:23.940Z,3.5
2022-12-24T08:47:24.855Z,3.51
2022-12-24T08:49:25.977Z,3.52
2022-12-24T08:53:28.432Z,3.51
2022-12-24T08:55:30.136Z,3.5
2022-12-24T08:57:31.640Z,3.51
2022-12-24T08:59:33.242Z,3.5
2022-12-24T09:03:36.060Z,3.5
2022-12-24T09:05:37.010Z,3.5
2022-12-24T09:09:39.949Z,3.5
2022-12-24T09:11:41.724Z,3.52
2022-12-24T09:13:43.339Z,3.55
2022-12-24T09:15:44.992Z,3.56
2022-12-24T09:19:48.344Z,3.56
2022-12-24T09:21:49.485Z,3.57
2022-12-24T09:23:50.902Z,3.57
2022-12-24T09:25:51.768Z,3.57
2022-12-24T09:27:54.138Z,3.58
2022-12-24T09:29:55.087Z,3.58
2022-12-24T09:31:56.574Z,3.58
2022-12-24T09:35:59.978Z,3.58
2022-12-24T09:38:01.386Z,3.59
2022-12-24T09:40:02.658Z,3.56
2022-12-24T09:42:03.550Z,3.57
2022-12-24T09:46:06.269Z,3.6
2022-12-24T09:48:07.896Z,3.59
2022-12-24T09:50:09.379Z,3.6
2022-12-24T09:52:10.338Z,3.6
2022-12-24T09:54:11.514Z,3.6
2022-12-24T09:56:13.094Z,3.6
2022-12-24T09:58:14.717Z,3.6
2022-12-24T10:02:17.548Z,3.61
2022-12-24T10:04:18.450Z,3.61
2022-12-24T10:06:23.570Z,3.59
2022-12-24T10:08:20.670Z,3.59
2022-12-24T10:10:21.737Z,3.59
2022-12-24T10:12:22.932Z,3.58
2022-12-24T10:14:24.739Z,3.58
2022-12-24T10:18:27.093Z,3.58
2022-12-24T10:20:28.381Z,3.58
2022-12-24T10:22:30.107Z,3.58
2022-12-24T10:24:31.306Z,3.58
2022-12-24T10:26:32.907Z,3.6
2022-12-24T10:28:34.101Z,3.6
2022-12-24T10:30:35.420Z,3.59
2022-12-24T10:34:38.215Z,3.6
2022-12-24T10:36:39.183Z,3.61
2022-12-24T10:38:40.493Z,3.6
2022-12-24T10:40:42.149Z,3.6
2022-12-24T10:44:45.287Z,3.6
2022-12-24T10:46:46.813Z,3.61
2022-12-24T10:48:50.728Z,3.61
2022-12-24T10:50:49.227Z,3.62
2022-12-24T10:52:50.253Z,3.61
2022-12-24T10:54:51.937Z,3.6
2022-12-24T10:55:35.717Z,3.6
2022-12-24T10:57:37.476Z,3.6
2022-12-24T10:59:39.218Z,3.6
2022-12-24T11:01:40.533Z,3.6
2022-12-24T11:03:41.763Z,3.6
2022-12-24T11:05:43.582Z,3.61
2022-12-24T11:07:45.378Z,3.61
2022-12-24T11:11:48.267Z,3.6
2022-12-24T11:13:49.639Z,3.61
2022-12-24T11:15:51.341Z,3.61
2022-12-24T11:17:52.252Z,3.61
2022-12-24T11:21:54.365Z,3.61
2022-12-24T11:23:55.732Z,3.6
2022-12-24T11:27:58.134Z,3.61
2022-12-24T11:30:00.258Z,3.61
2022-12-24T11:32:01.312Z,3.6
2022-12-24T11:34:02.710Z,3.6
2022-12-24T11:38:05.112Z,3.6
2022-12-24T11:40:06.488Z,3.6
2022-12-24T11:44:08.842Z,3.61
2022-12-24T11:46:10.674Z,3.61
2022-12-24T11:48:12.259Z,3.62
2022-12-24T11:50:18.412Z,3.62
2022-12-24T11:54:15.847Z,3.64
2022-12-24T11:56:16.975Z,3.64
2022-12-24T11:58:18.062Z,3.62
2022-12-24T12:00:19.464Z,3.62
2022-12-24T12:04:22.255Z,3.61
2022-12-24T12:06:23.470Z,3.61
2022-12-24T12:10:25.599Z,3.62
2022-12-24T12:12:26.628Z,3.62
2022-12-24T12:14:27.803Z,3.62
2022-12-24T12:16:28.933Z,3.63
2022-12-24T12:20:31.444Z,3.63
2022-12-24T12:22:32.791Z,3.64
2022-12-24T12:24:34.164Z,3.65
2022-12-24T12:26:35.622Z,3.65
2022-12-24T12:28:37.359Z,3.63
2022-12-24T12:30:38.518Z,3.63
2022-12-24T12:32:40.246Z,3.64
2022-12-24T12:36:43.316Z,3.64
2022-12-24T12:38:44.874Z,3.65
2022-12-24T12:40:45.958Z,3.65
2022-12-24T12:42:47.700Z,3.65
2022-12-24T12:44:49.163Z,3.65
2022-12-24T12:46:51.085Z,3.66
2022-12-24T12:48:54.538Z,3.65
2022-12-24T12:52:55.057Z,3.63
2022-12-24T12:54:56.486Z,3.63
2022-12-24T12:56:57.532Z,3.62
2022-12-24T12:58:59.073Z,3.63
2022-12-24T13:03:02.058Z,3.63
2022-12-24T13:05:03.286Z,3.63
2022-12-24T13:09:06.816Z,3.62
2022-12-24T13:11:07.788Z,3.62
2022-12-24T13:13:09.623Z,3.62
2022-12-24T13:15:10.851Z,3.61
2022-12-24T13:19:13.476Z,3.62
2022-12-24T13:21:14.974Z,3.63
2022-12-24T13:23:16.421Z,3.63
2022-12-24T13:25:17.616Z,3.63
2022-12-24T13:27:19.492Z,3.63
2022-12-24T13:29:20.982Z,3.63
2022-12-24T13:31:22.471Z,3.65
2022-12-24T13:35:25.573Z,3.63
2022-12-24T13:37:27.007Z,3.63
2022-12-24T13:39:28.430Z,3.64
2022-12-24T13:41:34.383Z,3.63
2022-12-24T13:45:32.535Z,3.63
2022-12-24T13:47:33.686Z,3.63
2022-12-24T13:51:36.104Z,3.63
2022-12-24T13:53:37.314Z,3.64
2022-12-24T13:55:38.422Z,3.65
2022-12-24T13:57:39.785Z,3.64
2022-12-24T14:01:42.598Z,3.63
2022-12-24T14:03:43.538Z,3.63
2022-12-24T14:07:46.700Z,3.63
2022-12-24T14:09:47.928Z,3.62
2022-12-24T14:11:48.818Z,3.62
2022-12-24T14:13:50.617Z,3.62
2022-12-24T14:17:53.673Z,3.62
2022-12-24T14:19:55.088Z,3.62
2022-12-24T14:21:56.985Z,3.62
2022-12-24T14:23:58.735Z,3.62
2022-12-24T14:28:01.339Z,3.62
2022-12-24T14:30:02.325Z,3.62
2022-12-24T14:32:04.467Z,3.62
2022-12-24T14:34:05.871Z,3.62
2022-12-24T14:36:07.737Z,3.62
2022-12-24T14:38:08.987Z,3.62
2022-12-24T14:40:10.210Z,3.62
2022-12-24T14:44:13.025Z,3.62
2022-12-24T14:46:14.516Z,3.61
2022-12-24T14:50:17.868Z,3.62
2022-12-24T14:52:38.263Z,3.61
2022-12-24T14:54:20.432Z,3.61
2022-12-24T14:56:22.223Z,3.61
2022-12-24T15:00:25.599Z,3.61
2022-12-24T15:02:26.615Z,3.61
2022-12-24T15:04:27.934Z,3.61
2022-12-24T15:06:29.369Z,3.61
2022-12-24T15:08:30.270Z,3.61
2022-12-24T15:10:31.520Z,3.61
2022-12-24T15:12:33.041Z,3.61
2022-12-24T15:16:35.884Z,3.61
2022-12-24T15:18:37.033Z,3.61
2022-12-24T15:20:38.561Z,3.61
2022-12-24T15:22:39.494Z,3.61
2022-12-24T15:26:41.903Z,3.61
2022-12-24T15:28:42.916Z,3.61
2022-12-24T15:30:44.517Z,3.61
2022-12-24T15:32:45.947Z,3.61
2022-12-24T15:34:47.642Z,3.61
2022-12-24T15:36:49.502Z,3.61
2022-12-24T15:38:50.603Z,3.61
2022-12-24T15:42:53.457Z,3.61
2022-12-24T15:44:54.476Z,3.61
2022-12-24T15:46:56.180Z,3.61
2022-12-24T15:48:58.001Z,3.61
2022-12-24T15:50:59.199Z,3.61
2022-12-24T15:53:19.072Z,3.61
2022-12-24T15:55:01.734Z,3.61
2022-12-24T15:59:04.897Z,3.61
2022-12-24T16:01:06.238Z,3.6
2022-12-24T16:03:07.459Z,3.61
2022-12-24T16:05:08.601Z,3.61
2022-12-24T16:09:11.198Z,3.61
2022-12-24T16:11:12.552Z,3.6
2022-12-24T16:13:14.256Z,3.61
2022-12-24T16:15:15.935Z,3.6
2022-12-24T16:17:16.958Z,3.61
2022-12-24T16:19:18.437Z,3.6
2022-12-24T16:21:20.352Z,3.6
2022-12-24T16:25:23.108Z,3.6
2022-12-24T16:27:24.910Z,3.6
2022-12-24T16:31:27.842Z,3.6
2022-12-24T16:33:29.320Z,3.61
2022-12-24T16:35:31.173Z,3.6
2022-12-24T16:37:32.739Z,3.6
2022-12-24T16:41:35.403Z,3.6
2022-12-24T16:43:36.597Z,3.6
2022-12-24T16:45:38.189Z,3.6
2022-12-24T16:47:43.035Z,3.6
2022-12-24T16:51:42.452Z,3.6
2022-12-24T16:53:44.074Z,3.6
2022-12-24T16:55:45.149Z,3.6
2022-12-24T16:57:46.395Z,3.6
2022-12-24T16:59:47.502Z,3.6
2022-12-24T17:01:48.966Z,3.6
2022-12-24T17:03:50.300Z,3.6
2022-12-24T17:07:53.042Z,3.6
2022-12-24T17:09:54.856Z,3.6
2022-12-24T17:11:56.213Z,3.6
2022-12-24T17:13:57.473Z,3.6
2022-12-24T17:15:58.820Z,3.6
2022-12-24T17:18:00.364Z,3.6
2022-12-24T17:20:01.583Z,3.6
2022-12-24T17:24:04.442Z,3.6
2022-12-24T17:26:10.820Z,3.6
2022-12-24T17:28:07.895Z,3.6
2022-12-24T17:30:09.463Z,3.6
2022-12-24T17:32:11.102Z,3.6
2022-12-24T17:34:12.160Z,3.6
2022-12-24T17:36:13.883Z,3.6
2022-12-24T17:40:16.923Z,3.6
2022-12-24T17:41:00.718Z,3.6
2022-12-24T17:43:01.953Z,3.6
2022-12-24T17:45:03.049Z,3.6
2022-12-24T17:47:04.503Z,3.6
2022-12-24T17:49:05.712Z,3.6
2022-12-24T17:51:07.477Z,3.6
2022-12-24T17:53:08.328Z,3.6
2022-12-24T17:55:09.631Z,3.6
2022-12-24T17:57:11.481Z,3.6
2022-12-24T18:01:14.404Z,3.6
2022-12-24T18:03:15.607Z,3.6
2022-12-24T18:05:16.802Z,3.6
2022-12-24T18:07:18.424Z,3.6
2022-12-24T18:09:19.595Z,3.6
2022-12-24T18:11:20.845Z,3.6
2022-12-24T18:13:22.152Z,3.6
2022-12-24T18:17:25.514Z,3.6
2022-12-24T18:19:27.472Z,3.6
2022-12-24T18:21:28.462Z,3.6
2022-12-24T18:23:29.585Z,3.6
2022-12-24T18:27:32.693Z,3.6
2022-12-24T18:29:33.962Z,3.6
2022-12-24T18:33:36.773Z,3.6
2022-12-24T18:35:37.764Z,3.6
2022-12-24T18:37:39.237Z,3.6
2022-12-24T18:39:40.760Z,3.6
2022-12-24T18:43:43.296Z,3.6
2022-12-24T18:45:44.552Z,3.6
2022-12-24T18:49:47.578Z,3.6
2022-12-24T18:51:49.189Z,3.6
2022-12-24T18:53:50.687Z,3.6
2022-12-24T18:55:52.232Z,3.6
2022-12-24T18:59:55.772Z,3.6
2022-12-24T19:01:56.868Z,3.6
2022-12-24T19:03:57.865Z,3.6
2022-12-24T19:05:59.018Z,3.6
2022-12-24T19:10:01.444Z,3.6
2022-12-24T19:12:02.911Z,3.6
2022-12-24T19:14:04.445Z,3.6
2022-12-24T19:16:06.158Z,3.6
2022-12-24T19:18:07.827Z,3.6
2022-12-24T19:20:08.992Z,3.6
2022-12-24T19:22:10.386Z,3.6
2022-12-24T19:26:13.039Z,3.6
2022-12-24T19:28:13.977Z,3.6
2022-12-24T19:30:15.826Z,3.6
2022-12-24T19:32:17.050Z,3.6
2022-12-24T19:34:18.404Z,3.59
2022-12-24T19:36:20.070Z,3.6
2022-12-24T19:38:21.880Z,3.6
2022-12-24T19:42:24.112Z,3.6
2022-12-24T19:44:25.530Z,3.6
2022-12-24T19:46:27.443Z,3.6
2022-12-24T19:48:29.161Z,3.6
2022-12-24T19:50:30.980Z,3.6
2022-12-24T19:52:32.166Z,3.6
2022-12-24T19:54:33.819Z,3.6
2022-12-24T19:58:36.209Z,3.6
2022-12-24T20:00:38.094Z,3.6
2022-12-24T20:02:39.605Z,3.6
2022-12-24T20:04:41.421Z,3.59
2022-12-24T20:08:45.211Z,3.59
2022-12-24T20:10:46.819Z,3.59
2022-12-24T20:12:48.303Z,3.6
2022-12-24T20:14:50.077Z,3.6
2022-12-24T20:16:51.787Z,3.59
2022-12-24T20:18:53.495Z,3.59
2022-12-24T20:20:55.079Z,3.59
2022-12-24T20:24:57.603Z,3.6
2022-12-24T20:26:58.614Z,3.6
2022-12-24T20:29:00.226Z,3.59
2022-12-24T20:31:01.836Z,3.59
2022-12-24T20:33:02.756Z,3.59
2022-12-24T20:35:04.406Z,3.59
2022-12-24T20:37:05.582Z,3.59
2022-12-24T20:41:08.650Z,3.59
2022-12-24T20:43:10.331Z,3.6
2022-12-24T20:45:11.441Z,3.59
2022-12-24T20:47:12.493Z,3.59
2022-12-24T20:51:21.223Z,3.59
2022-12-24T20:53:16.347Z,3.59
2022-12-24T20:57:24.788Z,3.59
2022-12-24T20:59:20.921Z,3.59
2022-12-24T21:01:22.599Z,3.59
2022-12-24T21:03:24.550Z,3.6
2022-12-24T21:07:27.290Z,3.59
2022-12-24T21:09:28.431Z,3.59
2022-12-24T21:11:29.597Z,3.59
2022-12-24T21:13:30.740Z,3.59
2022-12-24T21:15:31.802Z,3.59
2022-12-24T21:17:33.717Z,3.59
2022-12-24T21:19:34.719Z,3.59
2022-12-24T21:23:37.403Z,3.59
2022-12-24T21:25:38.496Z,3.59
2022-12-24T21:27:39.832Z,3.59
2022-12-24T21:29:41.363Z,3.59
2022-12-24T21:33:43.424Z,3.59
2022-12-24T21:35:45.321Z,3.59
2022-12-24T21:37:46.980Z,3.59
2022-12-24T21:39:48.288Z,3.59
2022-12-24T21:41:49.364Z,3.59
2022-12-24T21:43:50.846Z,3.59
2022-12-24T21:45:51.886Z,3.59
2022-12-24T21:49:54.728Z,3.59
2022-12-24T21:51:55.764Z,3.59
2022-12-24T21:55:58.288Z,3.59
2022-12-24T21:58:00.134Z,3.59
2022-12-24T22:00:01.960Z,3.59
2022-12-24T22:02:03.952Z,3.59
2022-12-24T22:06:06.803Z,3.59
2022-12-24T22:08:07.993Z,3.59
2022-12-24T22:12:10.689Z,3.59
2022-12-24T22:14:12.071Z,3.59
2022-12-24T22:16:13.400Z,3.59
2022-12-24T22:18:14.576Z,3.59
2022-12-24T22:22:16.931Z,3.59
2022-12-24T22:24:18.398Z,3.59
2022-12-24T22:28:20.824Z,3.59
2022-12-24T22:30:22.724Z,3.59
2022-12-24T22:32:24.133Z,3.59
2022-12-24T22:34:25.888Z,3.59
2022-12-24T22:38:28.661Z,3.59
2022-12-24T22:40:30.541Z,3.59
2022-12-24T22:42:31.689Z,3.59
2022-12-24T22:44:32.836Z,3.59
2022-12-24T22:48:35.061Z,3.59
2022-12-24T22:50:36.962Z,3.59
2022-12-24T22:52:37.896Z,3.59
2022-12-24T22:54:38.925Z,3.59
2022-12-24T22:56:41.409Z,3.58
2022-12-24T22:58:42.450Z,3.58
2022-12-24T23:00:43.640Z,3.58
2022-12-24T23:04:45.961Z,3.58
2022-12-24T23:06:47.269Z,3.58
2022-12-24T23:08:48.732Z,3.58
2022-12-24T23:10:50.181Z,3.58
2022-12-24T23:12:51.645Z,3.59
2022-12-24T23:14:53.524Z,3.58
2022-12-24T23:16:54.783Z,3.58
2022-12-24T23:20:57.892Z,3.59
2022-12-24T23:22:59.329Z,3.58
2022-12-24T23:25:00.704Z,3.58
2022-12-24T23:27:02.425Z,3.58
2022-12-24T23:29:03.351Z,3.58
2022-12-24T23:31:05.107Z,3.59
2022-12-24T23:33:06.877Z,3.59
2022-12-24T23:37:09.704Z,3.58
2022-12-24T23:39:11.248Z,3.59
2022-12-24T23:41:12.873Z,3.58
2022-12-24T23:43:14.508Z,3.58
2022-12-24T23:47:17.302Z,3.58
2022-12-24T23:49:19.243Z,3.58
2022-12-24T23:51:20.339Z,3.58
2022-12-24T23:53:22.171Z,3.58
2022-12-24T23:55:23.574Z,3.58
2022-12-24T23:57:25.340Z,3.58
2022-12-24T23:59:26.506Z,3.58
